Time;durP1;ratioP1;P1;durP2;ratioP2;P2;SDS_P1;SDS_P2;PMS_P1;PMS_P2;Temp;Humidity;BMP_temperature;BMP_pressure;BME280_temperature;BME280_humidity;BME280_pressure;Samples;Min_cycle;Max_cycle;Signal;HPM_P1;HPM_P2
2023/08/14 00:01:29;;;;;;;6.90;6.33;;;;;21.60;97258.00;;;;5013993;28;20206;-90
2023/08/14 00:04:18;;;;;;;6.57;5.90;;;;;21.40;97262.00;;;;5005768;28;20281;-90
2023/08/14 00:07:07;;;;;;;6.77;6.17;;;;;21.40;97269.00;;;;5017463;28;20209;-90
2023/08/14 00:09:56;;;;;;;8.40;7.40;;;;;21.10;97262.00;;;;5013305;28;20218;-90
2023/08/14 00:12:46;;;;;;;9.63;6.83;;;;;20.90;97258.00;;;;5020609;28;20607;-90
2023/08/14 00:15:35;;;;;;;6.83;6.13;;;;;20.80;97261.00;;;;5012382;28;20210;-89
2023/08/14 00:18:26;;;;;;;8.30;7.57;;;;;20.80;97256.00;;;;5020300;28;20194;-90
2023/08/14 00:21:15;;;;;;;6.87;6.17;;;;;21.20;97242.00;;;;5017711;28;20201;-89
2023/08/14 00:24:05;;;;;;;7.27;6.57;;;;;21.30;97243.00;;;;5014431;28;20205;-89
2023/08/14 00:26:54;;;;;;;6.30;5.80;;;;;21.00;97242.00;;;;5017873;28;20579;-90
2023/08/14 00:29:45;;;;;;;8.23;7.17;;;;;20.80;97265.00;;;;5015234;28;20202;-91
2023/08/14 00:32:34;;;;;;;7.57;6.10;;;;;20.70;97246.00;;;;5009649;28;20734;-89
2023/08/14 00:35:25;;;;;;;8.27;7.47;;;;;20.80;97252.00;;;;5014411;28;20202;-89
2023/08/14 00:38:14;;;;;;;9.07;7.67;;;;;20.90;97245.00;;;;5001563;28;20225;-90
2023/08/14 00:41:04;;;;;;;7.63;7.03;;;;;20.60;97245.00;;;;5001008;28;20260;-90
2023/08/14 00:43:53;;;;;;;7.83;7.10;;;;;20.40;97246.00;;;;4999192;28;20233;-89
2023/08/14 00:46:42;;;;;;;7.83;7.07;;;;;20.50;97247.00;;;;5015460;28;20199;-90
2023/08/14 00:49:31;;;;;;;8.53;7.03;;;;;20.60;97249.00;;;;5011039;28;20207;-90
2023/08/14 00:52:23;;;;;;;8.53;7.10;;;;;20.60;97252.00;;;;5011283;28;20222;-89
2023/08/14 00:55:15;;;;;;;7.80;7.20;;;;;20.60;97249.00;;;;5012392;28;20195;-91
2023/08/14 00:58:04;;;;;;;7.70;6.90;;;;;20.40;97270.00;;;;5012052;28;20679;-91
2023/08/14 01:00:54;;;;;;;9.00;7.60;;;;;20.40;97259.00;;;;5013754;28;20269;-89
2023/08/14 01:03:44;;;;;;;7.90;7.13;;;;;20.30;97257.00;;;;5018451;28;20303;-90
2023/08/14 01:06:33;;;;;;;7.90;7.03;;;;;20.50;97265.00;;;;5008704;28;20672;-90
2023/08/14 01:09:24;;;;;;;7.90;7.10;;;;;20.60;97266.00;;;;5007036;28;20293;-91
2023/08/14 01:12:22;;;;;;;8.23;7.43;;;;;20.10;97261.00;;;;5010969;28;20710;-90
2023/08/14 01:15:14;;;;;;;10.10;7.10;;;;;19.60;97267.00;;;;5016069;28;20213;-89
2023/08/14 01:18:04;;;;;;;8.87;7.97;;;;;19.40;97268.00;;;;5010096;28;20718;-90
2023/08/14 01:21:12;;;;;;;8.77;7.97;;;;;19.80;97267.00;;;;5011443;28;20733;-90
2023/08/14 01:24:08;;;;;;;10.20;7.23;;;;;20.00;97270.00;;;;5012253;28;20271;-90
2023/08/14 01:26:59;;;;;;;8.83;7.93;;;;;19.90;97276.00;;;;5008910;28;20201;-89
2023/08/14 01:29:56;;;;;;;8.23;7.53;;;;;20.10;97272.00;;;;5012481;28;20197;-90
2023/08/14 01:32:45;;;;;;;8.63;7.80;;;;;20.20;97275.00;;;;5011877;28;20227;-90
2023/08/14 01:35:38;;;;;;;8.77;7.87;;;;;19.90;97273.00;;;;5013539;28;20241;-90
2023/08/14 01:38:33;;;;;;;8.83;8.13;;;;;19.90;97272.00;;;;5008689;28;20234;-89
2023/08/14 01:41:26;;;;;;;8.30;7.60;;;;;20.10;97268.00;;;;5001699;28;20206;-90
2023/08/14 01:44:20;;;;;;;10.30;8.17;;;;;19.90;97272.00;;;;5000862;28;20202;-90
2023/08/14 01:47:13;;;;;;;9.67;8.17;;;;;19.90;97267.00;;;;5000109;28;20201;-90
2023/08/14 01:50:03;;;;;;;8.50;7.20;;;;;19.80;97274.00;;;;5005293;28;20199;-90
2023/08/14 01:52:52;;;;;;;10.60;8.47;;;;;19.70;97265.00;;;;5015634;28;20223;-89
2023/08/14 01:55:41;;;;;;;9.37;8.37;;;;;19.50;97259.00;;;;5016688;28;20210;-89
2023/08/14 01:58:31;;;;;;;8.63;7.83;;;;;19.50;97258.00;;;;5018758;28;20221;-89
2023/08/14 02:01:21;;;;;;;9.07;8.10;;;;;19.80;97261.00;;;;5013257;28;20206;-90
2023/08/14 02:04:11;;;;;;;10.17;9.17;;;;;19.30;97268.00;;;;5006092;28;20193;-89
2023/08/14 02:07:00;;;;;;;10.00;8.27;;;;;19.20;97271.00;;;;5012038;28;20202;-89
2023/08/14 02:09:49;;;;;;;9.40;8.33;;;;;19.40;97264.00;;;;5007924;28;20197;-88
2023/08/14 02:12:38;;;;;;;10.30;8.90;;;;;19.80;97255.00;;;;5017819;28;20232;-89
2023/08/14 02:15:28;;;;;;;15.97;9.03;;;;;20.00;97260.00;;;;5014372;28;20217;-89
2023/08/14 02:18:18;;;;;;;11.00;8.83;;;;;19.50;97249.00;;;;5020728;28;20225;-90
2023/08/14 02:21:07;;;;;;;10.83;8.87;;;;;19.30;97246.00;;;;5008587;28;20255;-90
2023/08/14 02:23:56;;;;;;;9.33;8.43;;;;;19.20;97245.00;;;;5013508;28;20311;-89
2023/08/14 02:26:46;;;;;;;10.53;9.33;;;;;19.20;97252.00;;;;5010640;28;20198;-91
2023/08/14 02:29:35;;;;;;;9.17;8.37;;;;;19.60;97255.00;;;;5008240;28;20208;-90
2023/08/14 02:32:24;;;;;;;11.00;8.97;;;;;19.50;97258.00;;;;5009502;28;20719;-89
2023/08/14 02:35:15;;;;;;;12.60;9.63;;;;;19.70;97247.00;;;;5003532;28;20213;-89
2023/08/14 02:38:05;;;;;;;10.37;9.13;;;;;20.00;97248.00;;;;5006639;28;20282;-89
2023/08/14 02:40:54;;;;;;;9.80;8.90;;;;;19.90;97254.00;;;;5009057;28;20206;-89
2023/08/14 02:43:43;;;;;;;9.87;8.50;;;;;19.70;97257.00;;;;5010273;28;20228;-89
2023/08/14 02:46:32;;;;;;;9.63;8.10;;;;;19.50;97239.00;;;;5010633;28;20209;-90
2023/08/14 02:49:22;;;;;;;9.27;8.33;;;;;19.50;97238.00;;;;5011920;28;20198;-90
2023/08/14 02:52:12;;;;;;;11.00;8.13;;;;;19.40;97238.00;;;;5002392;28;20287;-89
2023/08/14 02:55:01;;;;;;;9.23;8.37;;;;;19.30;97233.00;;;;5019107;28;20197;-89
2023/08/14 02:57:51;;;;;;;8.70;7.90;;;;;19.20;97243.00;;;;5003268;28;20271;-90
2023/08/14 03:00:40;;;;;;;10.70;9.33;;;;;19.00;97244.00;;;;5015604;28;25104;-90
2023/08/14 03:03:29;;;;;;;11.77;9.10;;;;;19.30;97245.00;;;;5015075;28;20225;-90
2023/08/14 03:06:18;;;;;;;10.23;9.23;;;;;19.40;97242.00;;;;5014220;28;20194;-90
2023/08/14 03:09:09;;;;;;;10.77;9.53;;;;;19.70;97240.00;;;;5015032;28;20572;-90
2023/08/14 03:11:58;;;;;;;10.93;9.90;;;;;19.60;97235.00;;;;5010014;28;20217;-90
2023/08/14 03:14:48;;;;;;;10.70;9.47;;;;;19.30;97239.00;;;;5011657;28;21814;-90
2023/08/14 03:17:37;;;;;;;10.40;8.97;;;;;19.10;97240.00;;;;5023605;28;20236;-90
2023/08/14 03:20:26;;;;;;;11.97;9.73;;;;;19.20;97238.00;;;;5016815;28;20202;-90
2023/08/14 03:23:15;;;;;;;10.40;8.57;;;;;19.40;97229.00;;;;5013771;28;20225;-90
2023/08/14 03:26:06;;;;;;;10.37;8.83;;;;;19.50;97234.00;;;;5012036;28;20203;-90
2023/08/14 03:28:56;;;;;;;9.50;8.50;;;;;19.60;97242.00;;;;5013123;28;20663;-90
2023/08/14 03:31:45;;;;;;;9.77;8.87;;;;;19.40;97243.00;;;;5005066;28;20213;-90
2023/08/14 03:34:34;;;;;;;9.87;8.97;;;;;19.20;97249.00;;;;5002496;28;20274;-89
2023/08/14 03:37:23;;;;;;;10.57;9.47;;;;;19.20;97239.00;;;;5003488;28;20212;-90
2023/08/14 03:40:13;;;;;;;12.67;9.77;;;;;19.10;97239.00;;;;5000743;28;20198;-90
2023/08/14 03:43:04;;;;;;;11.27;9.63;;;;;19.40;97235.00;;;;5002926;28;20261;-90
2023/08/14 03:45:53;;;;;;;10.03;8.90;;;;;19.50;97235.00;;;;5016484;28;20203;-89
2023/08/14 03:48:42;;;;;;;10.67;9.67;;;;;19.30;97237.00;;;;5013506;28;20292;-90
2023/08/14 03:51:31;;;;;;;10.67;8.63;;;;;19.10;97238.00;;;;5007790;28;20251;-90
2023/08/14 03:54:21;;;;;;;10.40;9.37;;;;;18.90;97237.00;;;;5013838;28;20203;-92
2023/08/14 03:57:10;;;;;;;11.53;9.53;;;;;19.00;97241.00;;;;5014302;28;20203;-90
2023/08/14 04:00:01;;;;;;;10.90;9.33;;;;;19.10;97243.00;;;;5005401;28;20202;-90
2023/08/14 04:02:50;;;;;;;10.27;9.37;;;;;19.20;97238.00;;;;5020891;28;20539;-90
2023/08/14 04:05:40;;;;;;;10.87;9.33;;;;;19.10;97247.00;;;;5026907;28;20209;-90
2023/08/14 04:08:30;;;;;;;13.07;9.77;;;;;18.90;97243.00;;;;5028111;28;20266;-90
2023/08/14 04:11:21;;;;;;;12.27;11.07;;;;;18.90;97248.00;;;;5032173;28;20201;-90
2023/08/14 04:14:11;;;;;;;11.77;10.57;;;;;19.20;97249.00;;;;5017442;28;20209;-90
2023/08/14 04:17:01;;;;;;;9.93;9.03;;;;;19.10;97246.00;;;;5019628;28;20204;-90
2023/08/14 04:19:50;;;;;;;10.80;9.73;;;;;19.20;97242.00;;;;5019675;28;20222;-90
2023/08/14 04:22:39;;;;;;;12.20;10.53;;;;;19.20;97249.00;;;;5007001;28;20236;-90
2023/08/14 04:25:29;;;;;;;11.30;9.33;;;;;19.00;97244.00;;;;5027828;28;20617;-90
2023/08/14 04:28:18;;;;;;;12.57;9.97;;;;;19.10;97246.00;;;;5003990;28;20203;-90
2023/08/14 04:31:07;;;;;;;11.50;9.63;;;;;19.00;97247.00;;;;5005759;28;20252;-90
2023/08/14 04:33:58;;;;;;;11.77;10.57;;;;;18.90;97246.00;;;;5023391;28;20693;-90
2023/08/14 04:36:47;;;;;;;11.93;10.73;;;;;18.80;97252.00;;;;5011466;28;20217;-90
2023/08/14 04:39:36;;;;;;;12.17;10.97;;;;;18.90;97249.00;;;;5004577;28;20245;-90
2023/08/14 04:42:26;;;;;;;13.37;10.13;;;;;19.20;97261.00;;;;5006735;28;20219;-90
2023/08/14 04:45:15;;;;;;;13.87;10.87;;;;;19.10;97252.00;;;;5005308;28;20208;-90
2023/08/14 04:48:05;;;;;;;14.70;10.97;;;;;19.30;97257.00;;;;5030166;28;20201;-90
2023/08/14 04:50:55;;;;;;;14.00;10.67;;;;;19.50;97243.00;;;;5027122;28;20205;-90
2023/08/14 04:53:44;;;;;;;13.07;11.67;;;;;19.60;97243.00;;;;5009543;28;20295;-90
2023/08/14 04:56:34;;;;;;;13.50;11.93;;;;;19.60;97246.00;;;;5006818;28;20214;-90
2023/08/14 04:59:23;;;;;;;11.57;10.47;;;;;19.50;97241.00;;;;5015527;28;20699;-90
2023/08/14 05:02:12;;;;;;;10.90;9.83;;;;;19.50;97236.00;;;;4999887;28;21044;-90
2023/08/14 05:05:01;;;;;;;11.87;10.67;;;;;19.70;97246.00;;;;5002279;28;20205;-90
2023/08/14 05:07:52;;;;;;;14.43;12.73;;;;;19.80;97249.00;;;;5013259;28;20209;-91
2023/08/14 05:10:41;;;;;;;11.70;10.40;;;;;19.90;97252.00;;;;5030656;28;20205;-90
2023/08/14 05:13:30;;;;;;;11.93;10.70;;;;;19.80;97252.00;;;;5001384;28;20741;-91
2023/08/14 05:16:21;;;;;;;12.77;11.53;;;;;19.80;97253.00;;;;5016512;28;20252;-90
2023/08/14 05:19:11;;;;;;;10.80;9.70;;;;;19.90;97243.00;;;;5019171;28;20217;-90
2023/08/14 05:22:00;;;;;;;10.80;9.80;;;;;20.10;97246.00;;;;5009554;28;20281;-90
2023/08/14 05:24:51;;;;;;;12.40;11.20;;;;;20.40;97248.00;;;;5009296;28;20206;-90
2023/08/14 05:27:40;;;;;;;10.83;9.83;;;;;20.30;97249.00;;;;5002330;28;20207;-90
2023/08/14 05:30:29;;;;;;;12.10;10.80;;;;;20.30;97256.00;;;;5011183;28;20547;-90
2023/08/14 05:33:18;;;;;;;11.87;10.70;;;;;20.60;97258.00;;;;5014770;28;20683;-90
2023/08/14 05:36:08;;;;;;;11.20;10.03;;;;;20.80;97260.00;;;;5001192;28;20205;-90
2023/08/14 05:38:57;;;;;;;13.47;10.57;;;;;20.90;97253.00;;;;5004609;28;20230;-90
2023/08/14 05:41:49;;;;;;;11.47;10.17;;;;;20.40;97259.00;;;;4996577;28;20206;-90
2023/08/14 05:44:38;;;;;;;11.50;10.40;;;;;20.50;97256.00;;;;5001731;28;20218;-91
2023/08/14 05:47:28;;;;;;;13.23;10.33;;;;;20.50;97252.00;;;;5009932;28;20279;-91
2023/08/14 05:50:20;;;;;;;12.37;10.97;;;;;21.00;97255.00;;;;5006259;28;20764;-90
2023/08/14 05:53:10;;;;;;;10.53;9.53;;;;;20.60;97254.00;;;;5010812;28;20220;-90
2023/08/14 05:55:59;;;;;;;10.60;9.60;;;;;20.90;97261.00;;;;5014903;28;20210;-91
2023/08/14 05:58:50;;;;;;;11.43;10.20;;;;;21.10;97258.00;;;;5019208;28;20230;-90
2023/08/14 06:01:39;;;;;;;11.80;10.37;;;;;21.50;97257.00;;;;5005826;28;20217;-90
2023/08/14 06:04:29;;;;;;;11.70;10.03;;;;;21.60;97257.00;;;;5000924;28;20672;-90
2023/08/14 06:07:18;;;;;;;9.87;8.97;;;;;22.00;97257.00;;;;5016522;28;20213;-90
2023/08/14 06:10:09;;;;;;;9.83;8.67;;;;;22.20;97256.00;;;;5008083;28;20205;-90
2023/08/14 06:12:58;;;;;;;13.07;9.40;;;;;22.20;97258.00;;;;5016569;28;20300;-90
2023/08/14 06:15:49;;;;;;;10.27;8.43;;;;;22.50;97263.00;;;;5021185;28;20210;-90
2023/08/14 06:18:39;;;;;;;9.90;8.47;;;;;22.60;97257.00;;;;5000287;28;20236;-89
2023/08/14 06:21:28;;;;;;;11.53;9.33;;;;;23.10;97257.00;;;;4996995;28;20206;-90
2023/08/14 06:24:18;;;;;;;9.53;8.27;;;;;23.30;97265.00;;;;5000698;28;20198;-90
2023/08/14 06:27:07;;;;;;;8.47;7.77;;;;;23.60;97262.00;;;;4992976;28;20214;-90
2023/08/14 06:29:56;;;;;;;10.07;7.67;;;;;23.80;97256.00;;;;4993727;28;20316;-90
2023/08/14 06:32:47;;;;;;;9.13;7.10;;;;;24.00;97260.00;;;;5004747;28;20234;-91
2023/08/14 06:35:36;;;;;;;8.20;7.30;;;;;24.10;97266.00;;;;5000278;28;20201;-90
2023/08/14 06:38:25;;;;;;;12.93;8.30;;;;;24.30;97271.00;;;;5001877;28;20701;-90
2023/08/14 06:41:14;;;;;;;9.83;8.00;;;;;24.50;97268.00;;;;4993526;28;20754;-90
2023/08/14 06:44:04;;;;;;;10.23;7.63;;;;;24.60;97273.00;;;;5000502;28;20776;-89
2023/08/14 06:46:53;;;;;;;8.03;7.23;;;;;24.70;97272.00;;;;5011422;28;20247;-91
2023/08/14 06:49:44;;;;;;;11.67;8.70;;;;;24.90;97277.00;;;;5007321;28;20216;-90
2023/08/14 06:52:33;;;;;;;7.80;7.00;;;;;25.00;97285.00;;;;4996338;28;20297;-90
2023/08/14 06:55:22;;;;;;;8.57;7.67;;;;;25.20;97278.00;;;;5005567;28;20202;-90
2023/08/14 06:58:11;;;;;;;8.87;7.13;;;;;25.40;97270.00;;;;5009545;28;20226;-90
2023/08/14 07:01:01;;;;;;;8.27;7.47;;;;;25.40;97276.00;;;;4996180;28;20231;-89
2023/08/14 07:03:50;;;;;;;10.97;7.40;;;;;25.40;97282.00;;;;5000036;28;20217;-89
2023/08/14 07:06:40;;;;;;;9.20;7.53;;;;;25.70;97285.00;;;;5002585;28;20606;-89
2023/08/14 07:09:30;;;;;;;11.33;7.27;;;;;25.80;97288.00;;;;4998553;28;20340;-90
2023/08/14 07:12:19;;;;;;;10.07;7.07;;;;;26.00;97296.00;;;;4997561;28;20217;-90
2023/08/14 07:15:11;;;;;;;8.53;7.03;;;;;26.20;97291.00;;;;5009381;28;20237;-90
2023/08/14 07:18:00;;;;;;;7.43;6.20;;;;;26.10;97292.00;;;;4999584;28;20210;-90
2023/08/14 07:20:50;;;;;;;7.33;6.63;;;;;26.20;97281.00;;;;4989088;28;20230;-89
2023/08/14 07:23:40;;;;;;;7.50;6.40;;;;;26.50;97295.00;;;;4995945;28;20658;-90
2023/08/14 07:26:30;;;;;;;7.47;6.60;;;;;26.80;97288.00;;;;4996888;28;20202;-90
2023/08/14 07:29:19;;;;;;;9.27;7.13;;;;;26.80;97286.00;;;;4993933;28;20203;-89
2023/08/14 07:32:08;;;;;;;9.27;6.53;;;;;26.70;97280.00;;;;4995157;28;20662;-89
2023/08/14 07:34:57;;;;;;;7.37;6.67;;;;;26.80;97282.00;;;;4992601;28;20238;-89
2023/08/14 07:37:47;;;;;;;6.47;5.87;;;;;27.10;97282.00;;;;4999491;28;20199;-91
2023/08/14 07:40:37;;;;;;;6.50;6.00;;;;;27.20;97282.00;;;;5014692;28;20643;-90
2023/08/14 07:43:27;;;;;;;8.33;6.40;;;;;27.30;97281.00;;;;4999959;28;20231;-90
2023/08/14 07:46:17;;;;;;;7.30;6.70;;;;;27.40;97273.00;;;;4999230;28;20212;-91
2023/08/14 07:49:07;;;;;;;9.03;7.23;;;;;27.40;97286.00;;;;4996240;28;20203;-92
2023/08/14 07:51:56;;;;;;;8.43;6.47;;;;;27.70;97284.00;;;;4996389;28;20220;-90
2023/08/14 07:54:45;;;;;;;6.87;6.27;;;;;27.80;97285.00;;;;5003573;28;20215;-90
2023/08/14 07:57:36;;;;;;;7.47;6.07;;;;;27.90;97299.00;;;;5012558;28;20207;-91
2023/08/14 08:00:25;;;;;;;6.27;5.03;;;;;28.00;97292.00;;;;5015235;28;20262;-90
2023/08/14 08:03:14;;;;;;;5.77;5.23;;;;;28.20;97296.00;;;;5010210;28;20231;-91
2023/08/14 08:06:04;;;;;;;6.83;6.23;;;;;28.40;97295.00;;;;5014756;28;20202;-92
2023/08/14 08:08:54;;;;;;;7.00;6.33;;;;;28.50;97299.00;;;;5021374;28;20212;-91
2023/08/14 08:11:43;;;;;;;7.85;5.90;;;;;28.50;97296.00;;;;5005433;28;20205;-90
2023/08/14 08:14:34;;;;;;;6.60;6.00;;;;;28.60;97286.00;;;;5009494;28;20675;-92
2023/08/14 08:17:24;;;;;;;6.47;5.87;;;;;28.70;97297.00;;;;5006163;28;20208;-92
2023/08/14 08:20:14;;;;;;;8.70;6.43;;;;;28.70;97296.00;;;;5017840;28;20227;-91
2023/08/14 08:23:03;;;;;;;6.73;6.13;;;;;28.90;97296.00;;;;5018738;28;20217;-91
2023/08/14 08:25:52;;;;;;;6.50;5.90;;;26.00;99.90;28.80;97297.00;;;;5028958;28;20212;-90
2023/08/14 08:28:41;;;;;;;6.77;6.27;;;25.90;99.90;29.00;97301.00;;;;5024319;28;20231;-91
2023/08/14 08:31:32;;;;;;;5.87;5.27;;;26.00;99.90;29.20;97301.00;;;;5017256;28;20209;-90
2023/08/14 08:34:21;;;;;;;6.63;5.77;;;26.10;99.90;29.40;97301.00;;;;5025148;28;20187;-91
2023/08/14 08:37:10;;;;;;;8.07;6.73;;;26.20;99.90;29.50;97298.00;;;;5032206;28;20208;-91
2023/08/14 08:39:59;;;;;;;5.83;5.37;;;26.30;99.90;29.60;97300.00;;;;5008137;28;20212;-91
2023/08/14 08:42:49;;;;;;;6.30;5.80;;;26.50;99.90;29.70;97309.00;;;;5029530;28;20272;-92
2023/08/14 08:45:40;;;;;;;6.20;5.63;;;26.60;99.90;29.70;97301.00;;;;5012526;28;20268;-91
2023/08/14 08:48:34;;;;;;;6.30;5.03;;;26.70;99.90;30.00;97310.00;;;;5012390;28;20205;-91
2023/08/14 08:51:24;;;;;;;6.60;5.50;;;26.80;99.90;30.00;97304.00;;;;5012364;28;20204;-92
2023/08/14 08:54:15;;;;;;;5.93;5.27;;;26.90;99.90;30.00;97307.00;;;;5005783;28;20209;-91
2023/08/14 08:57:06;;;;;;;5.77;5.00;;;27.00;99.90;30.30;97299.00;;;;5004884;28;20256;-92
2023/08/14 08:59:59;;;;;;;4.67;3.90;;;27.10;99.90;29.60;97297.00;;;;5010003;28;20202;-91
2023/08/14 09:02:48;;;;;;;5.73;5.10;;;27.10;99.90;29.80;97297.00;;;;5002088;28;20226;-91
2023/08/14 09:05:41;;;;;;;5.77;4.93;;;27.10;99.90;30.10;97304.00;;;;5010119;28;20697;-90
2023/08/14 09:08:31;;;;;;;5.67;4.90;;;27.20;99.90;30.20;97300.00;;;;5013410;28;20914;-90
2023/08/14 09:11:20;;;;;;;7.60;3.70;;;27.30;99.90;30.60;97301.00;;;;5012534;28;20203;-91
2023/08/14 09:14:09;;;;;;;4.90;4.37;;;27.40;99.90;30.90;97300.00;;;;5023041;28;20219;-91
2023/08/14 09:16:58;;;;;;;5.03;4.53;;;27.50;99.90;30.70;97307.00;;;;5027721;28;20727;-91
2023/08/14 09:19:47;;;;;;;5.40;4.90;;;27.60;99.90;30.90;97304.00;;;;5022748;28;20264;-91
2023/08/14 09:22:39;;;;;;;6.10;4.77;;;27.80;99.90;31.00;97304.00;;;;5022302;28;20227;-91
2023/08/14 09:25:29;;;;;;;6.00;5.50;;;27.90;99.90;30.60;97308.00;;;;5014306;28;20208;-92
2023/08/14 09:28:18;;;;;;;5.53;4.93;;;28.00;99.90;30.40;97306.00;;;;5007521;28;20215;-91
2023/08/14 09:31:07;;;;;;;6.33;5.73;;;27.90;99.90;30.60;97309.00;;;;5005286;28;20238;-91
2023/08/14 09:33:56;;;;;;;8.47;4.80;;;27.90;99.90;31.30;97304.00;;;;5009608;28;20215;-91
2023/08/14 09:36:46;;;;;;;5.73;5.17;;;28.10;99.90;30.00;97298.00;;;;5015921;28;20198;-91
2023/08/14 09:39:37;;;;;;;6.03;5.43;;;28.00;99.90;30.40;97300.00;;;;5010751;28;20307;-90
2023/08/14 09:42:25;;;;;;;5.90;5.00;;;27.90;99.90;30.50;97297.00;;;;5000535;28;20236;-91
2023/08/14 09:45:17;;;;;;;6.20;5.67;;;27.90;99.90;30.50;97293.00;;;;5006993;28;20248;-91
2023/08/14 09:48:08;;;;;;;6.60;5.50;;;27.90;99.90;30.60;97298.00;;;;4991787;28;20670;-93
2023/08/14 09:51:00;;;;;;;6.07;5.53;;;28.00;99.90;31.50;97303.00;;;;5010816;28;20570;-91
2023/08/14 09:53:50;;;;;;;6.23;5.40;;;28.20;99.90;30.70;97291.00;;;;5000997;28;20604;-92
2023/08/14 09:56:40;;;;;;;9.03;5.83;;;28.30;99.90;31.60;97286.00;;;;5009034;28;20677;-89
2023/08/14 09:59:29;;;;;;;5.67;4.70;;;28.40;99.90;31.90;97283.00;;;;4996332;28;20198;-91
2023/08/14 10:02:23;;;;;;;5.87;5.37;;;28.60;99.90;31.60;97286.00;;;;5001053;28;20241;-91
2023/08/14 10:05:12;;;;;;;5.70;5.20;;;28.60;99.80;31.90;97283.00;;;;4995257;28;20666;-91
2023/08/14 10:08:03;;;;;;;6.50;6.00;;;28.70;99.90;32.20;97282.00;;;;4990526;28;20207;-92
2023/08/14 10:10:52;;;;;;;7.30;6.57;;;29.00;99.90;32.80;97279.00;;;;5006945;28;20604;-92
2023/08/14 10:13:59;;;;;;;6.72;6.13;;;29.20;99.90;32.70;97273.00;;;;4998880;28;20218;-92
2023/08/14 10:16:49;;;;;;;5.45;4.95;;;29.40;99.70;32.40;97275.00;;;;4998489;28;20209;-92
2023/08/14 10:19:40;;;;;;;6.77;6.07;;;29.50;98.80;32.90;97278.00;;;;4999003;28;20729;-92
2023/08/14 10:22:30;;;;;;;6.50;5.93;;;29.60;99.00;32.90;97274.00;;;;5000691;28;20236;-91
2023/08/14 10:25:20;;;;;;;7.28;6.13;;;29.70;99.00;33.10;97276.00;;;;4997257;28;20682;-93
2023/08/14 10:28:10;;;;;;;5.63;5.13;;;29.80;98.50;33.00;97272.00;;;;4999700;28;20198;-92
2023/08/14 10:31:01;;;;;;;6.05;5.35;;;29.90;97.30;33.50;97277.00;;;;4990184;28;20206;-93
2023/08/14 10:33:51;;;;;;;6.05;5.20;;;30.10;97.60;33.70;97277.00;;;;5005291;28;20217;-91
2023/08/14 10:36:40;;;;;;;5.40;4.75;;;30.30;97.60;33.40;97272.00;;;;4990194;28;20202;-91
2023/08/14 10:39:35;;;;;;;5.35;4.80;;;30.40;95.70;33.30;97269.00;;;;4991065;28;20284;-91
2023/08/14 10:42:24;;;;;;;5.63;4.90;;;30.30;95.10;33.30;97267.00;;;;5002041;28;20229;-91
2023/08/14 10:45:17;;;;;;;5.85;4.47;;;30.40;95.20;31.80;97266.00;;;;5004549;28;20189;-90
2023/08/14 10:48:12;;;;;;;4.68;4.28;;;30.30;92.20;32.40;97256.00;;;;5004006;28;20207;-92
2023/08/14 10:51:01;;;;;;;4.35;3.92;;;29.90;92.10;33.10;97248.00;;;;4993622;28;20194;-90
2023/08/14 10:54:08;;;;;;;6.03;4.45;;;30.10;94.00;34.00;97241.00;;;;4999762;28;20225;-91
2023/08/14 10:56:59;;;;;;;4.63;4.28;;;30.30;93.80;34.10;97238.00;;;;5008743;28;20201;-91
2023/08/14 10:59:57;;;;;;;5.00;4.60;;;30.60;93.30;33.20;97232.00;;;;4999920;28;20569;-91
2023/08/14 11:02:54;;;;;;;4.40;4.00;;;30.50;90.70;33.40;97237.00;;;;5004734;28;20233;-92
2023/08/14 11:05:45;;;;;;;4.30;4.00;;;30.60;91.00;33.20;97239.00;;;;4998871;28;20199;-91
2023/08/14 11:08:34;;;;;;;5.18;4.22;;;30.40;89.70;34.00;97237.00;;;;4998489;28;20216;-92
2023/08/14 11:11:23;;;;;;;5.40;4.55;;;30.60;89.60;33.80;97234.00;;;;4998750;28;20221;-90
2023/08/14 11:14:12;;;;;;;3.65;3.35;;;30.80;86.60;32.60;97225.00;;;;4999439;28;20269;-91
2023/08/14 11:17:02;;;;;;;3.95;3.10;;;30.50;82.50;31.70;97229.00;;;;5005604;28;20238;-90
2023/08/14 11:19:51;;;;;;;4.93;3.55;;;30.10;79.80;34.30;97221.00;;;;5007920;28;20580;-90
2023/08/14 11:22:45;;;;;;;4.00;3.70;;;30.40;85.70;34.10;97226.00;;;;4996331;28;20247;-90
2023/08/14 11:25:34;;;;;;;3.67;3.38;;;30.60;80.90;33.60;97233.00;;;;5010769;28;20195;-90
2023/08/14 11:28:24;;;;;;;3.63;3.33;;;30.80;82.10;35.10;97233.00;;;;5016280;28;20204;-92
2023/08/14 11:31:14;;;;;;;4.80;3.50;;;31.10;85.90;35.40;97233.00;;;;5012995;28;20203;-92
2023/08/14 11:34:05;;;;;;;4.10;3.80;;;31.50;83.70;35.90;97229.00;;;;5015074;28;20275;-91
2023/08/14 11:36:57;;;;;;;4.22;3.92;;;31.80;83.10;35.10;97223.00;;;;5014307;28;20221;-91
2023/08/14 11:39:54;;;;;;;4.18;3.78;;;32.20;81.00;35.90;97222.00;;;;5033669;28;20207;-91
2023/08/14 11:42:44;;;;;;;6.72;4.38;;;32.30;81.50;36.80;97216.00;;;;5006373;28;20226;-91
2023/08/14 11:45:33;;;;;;;4.90;4.13;;;32.80;82.70;36.50;97219.00;;;;5002689;28;20676;-91
2023/08/14 11:48:22;;;;;;;4.97;3.28;;;33.00;81.40;35.90;97214.00;;;;5021318;28;20197;-91
2023/08/14 11:51:11;;;;;;;4.03;3.60;;;33.10;78.70;35.60;97219.00;;;;5008965;28;20573;-91
2023/08/14 11:54:01;;;;;;;3.35;3.05;;;33.10;75.90;35.40;97204.00;;;;5011543;28;20640;-91
2023/08/14 11:56:51;;;;;;;4.68;3.33;;;32.90;74.30;36.30;97212.00;;;;5002769;28;20211;-92
2023/08/14 11:59:40;;;;;;;3.05;2.70;;;33.00;75.60;35.90;97207.00;;;;5009949;28;20208;-91
2023/08/14 12:02:30;;;;;;;2.90;2.70;;;33.00;73.30;36.30;97202.00;;;;5025013;28;20233;-91
2023/08/14 12:05:21;;;;;;;3.25;2.95;;;33.10;70.30;35.10;97205.00;;;;5007729;28;20197;-92
2023/08/14 12:08:10;;;;;;;3.78;3.00;;;33.00;70.20;32.40;97199.00;;;;5005092;28;20201;-92
2023/08/14 12:10:59;;;;;;;3.75;3.45;;;32.20;66.00;32.50;97189.00;;;;5012198;28;20202;-91
2023/08/14 12:13:53;;;;;;;4.63;3.40;;;31.50;66.70;35.00;97190.00;;;;5027858;28;20224;-91
2023/08/14 12:16:42;;;;;;;2.85;2.65;;;31.40;71.40;34.80;97197.00;;;;5029170;28;20669;-89
2023/08/14 12:19:31;;;;;;;3.17;2.88;;;31.80;75.30;34.50;97191.00;;;;5022921;28;20197;-91
2023/08/14 12:22:22;;;;;;;4.53;3.13;;;32.00;72.00;34.00;97183.00;;;;5006627;28;20241;-91
2023/08/14 12:25:10;;;;;;;4.00;3.40;;;32.00;70.10;33.50;97181.00;;;;5001750;28;20202;-90
2023/08/14 12:28:01;;;;;;;3.35;3.05;;;31.70;72.40;34.60;97183.00;;;;5012698;28;20249;-90
2023/08/14 12:30:52;;;;;;;4.95;3.47;;;31.80;74.90;35.50;97178.00;;;;4999563;28;20272;-91
2023/08/14 12:33:41;;;;;;;5.88;3.78;;;32.00;73.00;36.00;97184.00;;;;5008459;28;20253;-90
2023/08/14 12:36:30;;;;;;;3.78;3.47;;;32.20;72.60;36.00;97181.00;;;;5027577;28;20208;-90
2023/08/14 12:39:19;;;;;;;3.63;3.33;;;32.50;70.70;36.70;97182.00;;;;5032224;28;20258;-90
2023/08/14 12:42:08;;;;;;;7.53;3.40;;;32.80;72.10;37.60;97178.00;;;;4996520;28;20578;-91
2023/08/14 12:44:57;;;;;;;4.05;3.65;;;33.20;71.70;38.80;97180.00;;;;4997590;28;20754;-91
2023/08/14 12:47:47;;;;;;;3.28;2.97;;;33.80;72.50;39.10;97178.00;;;;5010768;28;20575;-91
2023/08/14 12:50:36;;;;;;;3.30;3.00;;;34.40;70.90;37.30;97176.00;;;;5011962;28;20205;-90
2023/08/14 12:53:25;;;;;;;3.35;3.05;;;34.60;64.40;36.10;97171.00;;;;5011347;28;20686;-92
2023/08/14 12:56:14;;;;;;;3.33;3.13;;;34.10;63.90;37.40;97179.00;;;;5026385;28;20198;-92
2023/08/14 12:59:06;;;;;;;4.03;3.17;;;34.10;65.30;38.00;97183.00;;;;5015397;28;20205;-91
2023/08/14 13:01:55;;;;;;;3.47;2.60;;;34.30;64.10;37.20;97177.00;;;;5013129;28;20192;-90
2023/08/14 13:04:45;;;;;;;3.65;3.33;;;34.60;62.90;36.50;97181.00;;;;5003411;28;20206;-92
2023/08/14 13:07:35;;;;;;;2.95;2.75;;;34.20;63.40;38.30;97182.00;;;;5012250;28;20200;-91
2023/08/14 13:10:24;;;;;;;9.10;3.42;;;34.40;64.80;38.60;97174.00;;;;5031423;28;20223;-92
2023/08/14 13:13:12;;;;;;;3.30;2.80;;;34.70;65.90;38.00;97171.00;;;;5004431;28;20213;-92
2023/08/14 13:16:02;;;;;;;3.30;3.00;;;34.80;64.30;38.40;97171.00;;;;5014931;28;20267;-92
2023/08/14 13:18:51;;;;;;;3.40;3.10;;;35.00;63.00;37.90;97168.00;;;;5022792;28;20248;-91
2023/08/14 13:21:41;;;;;;;2.50;2.30;;;35.20;64.30;35.80;97153.00;;;;5028958;28;20659;-91
2023/08/14 13:24:31;;;;;;;3.30;3.03;;;34.90;59.90;32.80;97151.00;;;;5002083;28;20300;-89
2023/08/14 13:27:20;;;;;;;3.33;2.92;;;33.30;61.50;35.20;97160.00;;;;5011024;28;20254;-90